createdAt,value
2022-10-06T00:00:15.208Z,1.80
2022-10-06T00:05:17.885Z,1.90
2022-10-06T00:10:20.490Z,1.35
2022-10-06T00:15:29.379Z,1.40
2022-10-06T00:20:33.186Z,1.63
2022-10-06T00:25:36.294Z,1.50
2022-10-06T00:30:39.029Z,1.73
2022-10-06T00:35:42.278Z,2.00
2022-10-06T00:40:50.388Z,1.52
2022-10-06T00:45:53.224Z,1.48
2022-10-06T00:50:58.405Z,1.73
2022-10-06T00:56:01.013Z,1.80
2022-10-06T01:01:04.287Z,1.80
2022-10-06T01:06:07.736Z,1.83
2022-10-06T01:11:15.692Z,1.95
2022-10-06T01:16:27.012Z,1.83
2022-10-06T01:26:51.948Z,1.73
2022-10-06T01:31:55.634Z,1.83
2022-10-06T01:36:58.321Z,2.30
2022-10-06T01:42:02.424Z,2.15
2022-10-06T01:47:06.891Z,2.17
2022-10-06T01:52:09.719Z,2.30
2022-10-06T01:57:12.337Z,2.30
2022-10-06T02:02:15.036Z,2.78
2022-10-06T02:07:17.752Z,2.33
2022-10-06T02:12:22.024Z,2.97
2022-10-06T02:17:24.999Z,2.70
2022-10-06T02:22:28.413Z,3.10
2022-10-06T02:27:31.124Z,3.03
2022-10-06T02:32:37.390Z,2.95
2022-10-06T02:37:41.676Z,2.92
2022-10-06T02:42:46.990Z,3.78
2022-10-06T02:47:56.882Z,3.70
2022-10-06T02:52:59.457Z,3.92
2022-10-06T02:58:03.724Z,3.78
2022-10-06T03:03:06.441Z,4.07
2022-10-06T03:08:10.824Z,4.70
2022-10-06T03:13:13.622Z,4.50
2022-10-06T03:18:16.247Z,4.53
2022-10-06T03:23:19.314Z,4.40
2022-10-06T03:28:22.959Z,4.60
2022-10-06T03:33:25.792Z,4.30
2022-10-06T03:38:31.416Z,4.80
2022-10-06T03:43:35.831Z,4.85
2022-10-06T03:48:38.927Z,5.03
2022-10-06T03:53:47.332Z,5.30
2022-10-06T03:59:00.276Z,5.22
2022-10-06T04:04:05.145Z,5.40
2022-10-06T04:09:15.374Z,5.45
2022-10-06T04:14:19.002Z,5.60
2022-10-06T04:19:22.208Z,5.85
2022-10-06T04:24:28.060Z,5.40
2022-10-06T04:29:32.810Z,5.60
2022-10-06T04:34:35.597Z,5.95
2022-10-06T04:39:39.069Z,4.80
2022-10-06T04:44:42.809Z,5.28
2022-10-06T04:49:45.718Z,4.90
2022-10-06T04:54:49.203Z,4.47
2022-10-06T05:00:14.784Z,4.50
2022-10-06T05:05:20.100Z,7.60
2022-10-06T05:10:23.916Z,4.65
2022-10-06T05:15:28.288Z,4.60
2022-10-06T05:20:31.288Z,4.10
2022-10-06T05:25:34.404Z,4.18
2022-10-06T05:30:37.840Z,4.25
2022-10-06T05:35:51.733Z,4.85
2022-10-06T05:41:06.773Z,4.03
2022-10-06T05:46:23.863Z,4.82
2022-10-06T05:51:31.439Z,5.35
2022-10-06T05:56:38.385Z,4.50
2022-10-06T06:01:43.096Z,5.97
2022-10-06T06:06:58.524Z,9.07
2022-10-06T06:12:02.786Z,5.28
2022-10-06T06:17:14.030Z,5.00
2022-10-06T06:22:16.822Z,5.00
2022-10-06T06:27:21.597Z,4.57
2022-10-06T06:32:25.109Z,4.90
2022-10-06T06:37:31.477Z,4.15
2022-10-06T06:42:35.305Z,10.10
2022-10-06T06:48:02.507Z,5.43
2022-10-06T06:53:07.141Z,4.53
2022-10-06T06:58:12.774Z,3.83
2022-10-06T07:03:38.459Z,4.25
2022-10-06T07:08:43.650Z,4.10
2022-10-06T07:13:50.791Z,4.25
2022-10-06T07:19:12.385Z,3.63
2022-10-06T07:24:34.385Z,3.93
2022-10-06T07:29:37.230Z,4.28
2022-10-06T07:39:49.780Z,4.68
2022-10-06T07:45:11.606Z,5.03
2022-10-06T07:50:16.193Z,5.60
2022-10-06T07:55:19.167Z,4.82
2022-10-06T08:00:53.107Z,4.40
2022-10-06T08:06:00.665Z,5.10
2022-10-06T08:11:04.927Z,3.97
2022-10-06T08:16:19.836Z,10.50
2022-10-06T08:21:35.694Z,8.73
2022-10-06T08:26:38.976Z,4.47
2022-10-06T08:31:42.225Z,4.82
2022-10-06T08:37:08.649Z,3.55
2022-10-06T08:42:50.605Z,3.15
2022-10-06T08:48:21.237Z,3.40
2022-10-06T08:53:23.871Z,4.20
2022-10-06T08:58:58.745Z,3.95
2022-10-06T09:04:05.376Z,4.60
2022-10-06T09:09:35.783Z,5.38
2022-10-06T09:14:44.538Z,5.57
2022-10-06T09:20:02.320Z,6.22
2022-10-06T09:25:17.836Z,5.60
2022-10-06T09:30:20.550Z,5.28
2022-10-06T09:35:25.822Z,5.78
2022-10-06T09:40:53.820Z,5.65
2022-10-06T09:46:17.836Z,5.57
2022-10-06T09:51:20.459Z,5.90
2022-10-06T09:56:23.242Z,5.47
2022-10-06T10:01:28.754Z,6.18
2022-10-06T10:06:35.138Z,14.70
2022-10-06T10:11:56.878Z,7.82
2022-10-06T10:22:23.414Z,6.30
2022-10-06T10:28:04.014Z,6.97
2022-10-06T10:33:16.955Z,6.93
2022-10-06T10:38:25.084Z,5.95
2022-10-06T10:43:35.348Z,6.50
2022-10-06T10:49:07.276Z,5.97
2022-10-06T10:59:30.463Z,5.82
2022-10-06T11:04:33.233Z,6.28
2022-10-06T11:09:51.953Z,6.75
2022-10-06T11:15:20.355Z,6.25
2022-10-06T11:20:47.217Z,5.75
2022-10-06T11:26:09.944Z,6.00
2022-10-06T11:31:21.789Z,5.28
2022-10-06T11:36:47.173Z,5.40
2022-10-06T11:41:58.527Z,10.32
2022-10-06T11:47:09.605Z,10.15
2022-10-06T11:52:12.141Z,6.93
2022-10-06T11:57:27.975Z,5.40
2022-10-06T12:02:33.375Z,5.32
2022-10-06T12:07:54.696Z,5.40
2022-10-06T12:14:26.270Z,12.60
2022-10-06T12:19:02.780Z,10.00
2022-10-06T12:24:45.728Z,4.78
2022-10-06T12:29:59.920Z,4.45
2022-10-06T12:35:16.441Z,4.80
2022-10-06T12:40:44.435Z,4.75
2022-10-06T12:45:47.036Z,4.93
2022-10-06T12:50:55.705Z,4.78
2022-10-06T12:56:03.691Z,4.72
2022-10-06T13:01:11.918Z,4.72
2022-10-06T13:06:15.267Z,5.03
2022-10-06T13:11:27.390Z,5.00
2022-10-06T13:16:33.548Z,5.10
2022-10-06T13:21:36.209Z,5.40
2022-10-06T13:26:40.352Z,5.68
2022-10-06T13:31:51.868Z,5.07
2022-10-06T13:36:56.848Z,5.47
2022-10-06T13:42:03.754Z,5.60
2022-10-06T13:47:18.628Z,5.25
2022-10-06T13:52:38.326Z,5.10
2022-10-06T13:57:49.315Z,5.38
2022-10-06T14:02:56.286Z,5.73
2022-10-06T14:08:02.765Z,5.68
2022-10-06T14:13:15.867Z,6.47
2022-10-06T14:18:26.333Z,6.07
2022-10-06T14:23:40.220Z,6.93
2022-10-06T14:28:48.905Z,6.78
2022-10-06T14:33:53.261Z,6.45
2022-10-06T14:38:57.286Z,7.10
2022-10-06T14:44:03.012Z,6.80
2022-10-06T14:49:11.318Z,14.32
2022-10-06T14:54:14.825Z,12.02
2022-10-06T14:59:18.259Z,8.15
2022-10-06T15:04:26.576Z,7.20
2022-10-06T15:09:31.304Z,7.72
2022-10-06T15:14:40.145Z,7.78
2022-10-06T15:19:42.744Z,7.25
2022-10-06T15:24:48.837Z,7.70
2022-10-06T15:29:51.490Z,7.45
2022-10-06T15:34:55.304Z,9.13
2022-10-06T15:39:58.404Z,9.43
2022-10-06T15:45:06.570Z,9.45
2022-10-06T15:50:11.368Z,8.93
2022-10-06T15:55:15.629Z,10.98
2022-10-06T16:00:18.418Z,14.20
2022-10-06T16:05:43.749Z,10.80
2022-10-06T16:10:50.081Z,10.02
2022-10-06T16:15:54.120Z,10.57
2022-10-06T16:20:56.855Z,10.63
2022-10-06T16:26:02.083Z,10.82
2022-10-06T16:31:06.302Z,11.05
2022-10-06T16:36:09.886Z,10.60
2022-10-06T16:41:12.558Z,10.32
2022-10-06T16:46:21.273Z,10.80
2022-10-06T16:51:29.416Z,10.23
2022-10-06T16:56:41.267Z,12.30
2022-10-06T17:01:44.766Z,10.70
2022-10-06T17:06:52.742Z,11.50
2022-10-06T17:12:01.190Z,11.25
2022-10-06T17:17:04.905Z,11.35
2022-10-06T17:22:07.451Z,11.02
2022-10-06T17:27:10.409Z,10.20
2022-10-06T17:32:12.946Z,11.38
2022-10-06T17:37:17.414Z,10.30
2022-10-06T17:42:19.971Z,10.55
2022-10-06T17:47:22.602Z,11.25
2022-10-06T17:52:25.256Z,10.30
2022-10-06T17:57:29.765Z,10.43
2022-10-06T18:02:33.265Z,11.00
2022-10-06T18:07:38.390Z,11.05
2022-10-06T18:12:41.308Z,10.52
2022-10-06T18:17:44.138Z,9.88
2022-10-06T18:22:48.641Z,10.45
2022-10-06T18:27:52.165Z,14.18
2022-10-06T18:38:18.061Z,10.30
2022-10-06T18:43:20.690Z,10.02
2022-10-06T18:48:41.638Z,10.50
2022-10-06T18:53:44.453Z,10.45
2022-10-06T18:58:47.702Z,9.48
2022-10-06T19:03:50.639Z,9.15
2022-10-06T19:09:00.848Z,9.25
2022-10-06T19:14:03.612Z,8.98
2022-10-06T19:19:10.847Z,9.32
2022-10-06T19:24:16.368Z,10.80
2022-10-06T19:29:23.724Z,9.95
2022-10-06T19:34:26.813Z,9.75
2022-10-06T19:39:32.538Z,9.35
2022-10-06T19:44:42.597Z,9.65
2022-10-06T19:49:45.616Z,11.02
2022-10-06T19:54:48.193Z,10.65
2022-10-06T19:59:51.097Z,9.48
2022-10-06T20:04:53.685Z,9.30
2022-10-06T20:09:56.234Z,10.07
2022-10-06T20:14:58.874Z,9.35
2022-10-06T20:20:03.313Z,10.35
2022-10-06T20:25:07.495Z,10.05
2022-10-06T20:30:10.878Z,10.27
2022-10-06T20:35:15.098Z,10.43
2022-10-06T20:40:36.321Z,10.43
2022-10-06T20:45:38.901Z,10.57
2022-10-06T20:50:41.601Z,11.00
2022-10-06T20:55:51.701Z,10.25
2022-10-06T21:00:54.601Z,10.55
2022-10-06T21:05:57.358Z,11.15
2022-10-06T21:11:02.532Z,10.45
2022-10-06T21:16:05.335Z,10.38
2022-10-06T21:21:11.408Z,10.60
2022-10-06T21:26:19.117Z,9.25
2022-10-06T21:31:24.819Z,9.70
2022-10-06T21:36:31.721Z,10.20
2022-10-06T21:41:39.009Z,9.15
2022-10-06T21:46:49.483Z,10.10
2022-10-06T21:51:54.482Z,9.57
2022-10-06T21:56:58.146Z,9.82
2022-10-06T22:02:00.874Z,9.88
2022-10-06T22:07:03.444Z,9.48
2022-10-06T22:12:06.072Z,10.32
2022-10-06T22:17:08.645Z,9.52
2022-10-06T22:22:11.232Z,9.93
2022-10-06T22:27:14.304Z,9.82
2022-10-06T22:32:17.112Z,10.02
2022-10-06T22:37:19.628Z,9.65
2022-10-06T22:42:22.147Z,10.27
2022-10-06T22:47:24.699Z,10.35
2022-10-06T22:52:27.200Z,9.27
2022-10-06T22:57:29.806Z,9.30
2022-10-06T23:02:32.571Z,9.13
2022-10-06T23:07:35.490Z,9.23
2022-10-06T23:12:38.219Z,8.70
2022-10-06T23:17:41.963Z,8.50
2022-10-06T23:22:44.971Z,8.73
2022-10-06T23:27:47.787Z,9.10
2022-10-06T23:32:50.403Z,8.27
2022-10-06T23:37:53.041Z,7.68
2022-10-06T23:42:55.721Z,8.75
2022-10-06T23:48:00.167Z,8.07
2022-10-06T23:53:02.831Z,8.07
2022-10-06T23:58:05.394Z,7.90
